Time;durP1;ratioP1;P1;durP2;ratioP2;P2;SDS_P1;SDS_P2;PMS_P1;PMS_P2;Temp;Humidity;BMP_temperature;BMP_pressure;BME280_temperature;BME280_humidity;BME280_pressure;Samples;Min_cycle;Max_cycle;Signal;HPM_P1;HPM_P2
2022/10/30 00:02:06;;;;;;;17.52;5.70;;;;;;;;;;5012407;28;20384;-78
2022/10/30 00:04:32;;;;;;;13.98;5.07;;;;;;;;;;5002939;28;20112;-78
2022/10/30 00:06:58;;;;;;;19.00;5.95;;;;;;;;;;5012826;28;20108;-78
2022/10/30 00:09:24;;;;;;;14.13;5.20;;;;;;;;;;5016276;28;20025;-78
2022/10/30 00:11:50;;;;;;;15.68;5.43;;;;;;;;;;5012781;28;20037;-78
2022/10/30 00:14:17;;;;;;;21.70;5.32;;;;;;;;;;5012024;28;20027;-78
2022/10/30 00:16:43;;;;;;;17.60;5.05;;;;;;;;;;5012807;28;20053;-78
2022/10/30 00:19:09;;;;;;;15.30;5.13;;;;;;;;;;5012241;28;20140;-77
2022/10/30 00:21:35;;;;;;;14.73;4.30;;;;;;;;;;4998305;28;20474;-78
2022/10/30 00:24:01;;;;;;;16.45;4.55;;;;;;;;;;5001585;28;20061;-77
2022/10/30 00:26:27;;;;;;;14.25;4.50;;;;;;;;;;5012122;28;20045;-77
2022/10/30 00:28:54;;;;;;;17.23;5.00;;;;;;;;;;5012269;28;20470;-78
2022/10/30 00:31:20;;;;;;;20.25;5.85;;;;;;;;;;5012013;28;20543;-78
2022/10/30 00:33:53;;;;;;;15.90;6.18;;;;;;;;;;5012083;28;20030;-77
2022/10/30 00:36:19;;;;;;;15.90;5.13;;;;;;;;;;5012389;28;20058;-78
2022/10/30 00:38:45;;;;;;;16.05;5.22;;;;;;;;;;5004742;28;20030;-78
2022/10/30 00:41:18;;;;;;;26.90;6.13;;;;;;;;;;5012557;28;20037;-78
2022/10/30 00:43:44;;;;;;;15.80;5.40;;;;;;;;;;5012217;28;20030;-78
2022/10/30 00:46:13;;;;;;;17.42;4.50;;;;;;;;;;5012516;28;20058;-78
2022/10/30 00:48:39;;;;;;;17.63;4.78;;;;;;;;;;5016437;28;20056;-78
2022/10/30 00:51:07;;;;;;;16.40;4.95;;;;;;;;;;5001571;28;20104;-78
2022/10/30 00:53:33;;;;;;;17.73;4.10;;;;;;;;;;5011038;28;20036;-78
2022/10/30 00:56:01;;;;;;;14.73;4.38;;;;;;;;;;5012427;28;20337;-78
2022/10/30 00:58:31;;;;;;;16.50;4.38;;;;;;;;;;5012421;28;20032;-77
2022/10/30 01:00:59;;;;;;;16.42;4.55;;;;;;;;;;5010045;28;20515;-77
2022/10/30 01:03:26;;;;;;;13.55;4.60;;;;;;;;;;5015443;28;20497;-78
2022/10/30 01:05:57;;;;;;;16.90;3.97;;;;;;;;;;5016137;28;20022;-78
2022/10/30 01:08:23;;;;;;;15.80;4.40;;;;;;;;;;5015656;28;20056;-78
2022/10/30 01:10:49;;;;;;;19.35;4.90;;;;;;;;;;5016178;28;20141;-78
2022/10/30 01:13:16;;;;;;;24.80;5.10;;;;;;;;;;5015425;28;20516;-78
2022/10/30 01:15:50;;;;;;;16.45;4.43;;;;;;;;;;5016315;28;20041;-78
2022/10/30 01:18:30;;;;;;;17.35;4.07;;;;;;;;;;5016315;28;20026;-78
2022/10/30 01:21:05;;;;;;;19.48;4.57;;;;;;;;;;5016173;28;20053;-78
2022/10/30 01:23:37;;;;;;;17.38;4.60;;;;;;;;;;5011020;28;20034;-78
2022/10/30 01:26:18;;;;;;;19.13;4.90;;;;;;;;;;5026641;28;20034;-78
2022/10/30 01:28:47;;;;;;;16.00;4.13;;;;;;;;;;5012398;28;20516;-78
2022/10/30 01:31:23;;;;;;;14.20;4.10;;;;;;;;;;4997497;28;20034;-78
2022/10/30 01:34:04;;;;;;;17.17;4.85;;;;;;;;;;5015067;28;20026;-78
2022/10/30 01:36:42;;;;;;;18.25;4.55;;;;;;;;;;5015282;28;20137;-77
2022/10/30 01:39:17;;;;;;;18.23;4.97;;;;;;;;;;5008549;28;20026;-77
2022/10/30 01:41:44;;;;;;;16.90;5.18;;;;;;;;;;5015399;28;20113;-77
2022/10/30 01:44:18;;;;;;;12.43;4.03;;;;;;;;;;5032387;28;20025;-78
2022/10/30 01:46:51;;;;;;;15.05;4.78;;;;;;;;;;5017798;28;20034;-78
2022/10/30 01:49:36;;;;;;;15.80;4.43;;;;;;;;;;5016218;28;20474;-77
2022/10/30 01:52:21;;;;;;;18.55;5.75;;;;;;;;;;5014851;28;20034;-78
2022/10/30 01:55:03;;;;;;;15.75;4.95;;;;;;;;;;5000292;28;20033;-78
2022/10/30 01:57:34;;;;;;;15.37;5.30;;;;;;;;;;5002967;28;20141;-77
2022/10/30 02:00:04;;;;;;;21.70;6.45;;;;;;;;;;5015367;28;20025;-77
2022/10/30 02:02:31;;;;;;;17.15;5.47;;;;;;;;;;5015246;28;20025;-78
2022/10/30 02:04:58;;;;;;;15.40;6.05;;;;;;;;;;5014707;28;20030;-78
2022/10/30 02:07:24;;;;;;;16.90;5.43;;;;;;;;;;5014751;28;20221;-78
2022/10/30 02:09:53;;;;;;;17.75;5.90;;;;;;;;;;5014452;28;20441;-77
2022/10/30 02:12:20;;;;;;;15.90;5.15;;;;;;;;;;5004539;28;20073;-77
2022/10/30 02:14:48;;;;;;;17.85;6.18;;;;;;;;;;5010310;28;20540;-78
2022/10/30 02:17:14;;;;;;;15.20;5.40;;;;;;;;;;5014298;28;20388;-78
2022/10/30 02:19:40;;;;;;;12.65;4.65;;;;;;;;;;5003051;28;20026;-77
2022/10/30 02:22:06;;;;;;;14.52;5.15;;;;;;;;;;4999273;28;20026;-78
2022/10/30 02:24:32;;;;;;;15.25;6.07;;;;;;;;;;5022306;28;20453;-78
2022/10/30 02:26:58;;;;;;;18.13;5.50;;;;;;;;;;5014611;28;20372;-77
2022/10/30 02:29:24;;;;;;;15.02;5.03;;;;;;;;;;5014343;28;20116;-78
2022/10/30 02:31:50;;;;;;;18.17;5.88;;;;;;;;;;5014278;28;20079;-77
2022/10/30 02:34:16;;;;;;;15.57;4.97;;;;;;;;;;5014415;28;20377;-77
2022/10/30 02:36:42;;;;;;;19.55;5.97;;;;;;;;;;5014072;28;20045;-77
2022/10/30 02:39:08;;;;;;;12.93;5.03;;;;;;;;;;5014065;28;20030;-77
2022/10/30 02:41:34;;;;;;;15.63;5.40;;;;;;;;;;5014100;28;20075;-77
2022/10/30 02:44:00;;;;;;;20.50;4.93;;;;;;;;;;5013673;28;20030;-78
2022/10/30 02:46:26;;;;;;;15.70;5.35;;;;;;;;;;5013744;28;20037;-77
2022/10/30 02:48:52;;;;;;;21.98;5.03;;;;;;;;;;5013852;28;20034;-77
2022/10/30 02:51:18;;;;;;;21.70;7.20;;;;;;;;;;5013745;28;20465;-77
2022/10/30 02:53:46;;;;;;;19.38;6.00;;;;;;;;;;5002962;28;20117;-77
2022/10/30 02:56:12;;;;;;;20.75;4.82;;;;;;;;;;5065821;23;20045;-78
2022/10/30 02:58:38;;;;;;;15.95;5.72;;;;;;;;;;5049669;28;20068;-77
2022/10/30 03:01:05;;;;;;;19.92;5.07;;;;;;;;;;5053794;28;20045;-77
2022/10/30 03:03:31;;;;;;;17.70;4.72;;;;;;;;;;5052983;28;20431;-77
2022/10/30 03:05:59;;;;;;;15.43;5.45;;;;;;;;;;5053821;28;20028;-77
2022/10/30 03:08:25;;;;;;;20.58;5.57;;;;;;;;;;5053088;28;20033;-77
2022/10/30 03:10:51;;;;;;;17.23;5.93;;;;;;;;;;5053903;28;20358;-77
2022/10/30 03:13:17;;;;;;;16.45;5.60;;;;;;;;;;5046043;28;20025;-78
2022/10/30 03:15:43;;;;;;;16.73;4.90;;;;;;;;;;5034208;28;20380;-77
2022/10/30 03:18:09;;;;;;;19.27;5.35;;;;;;;;;;5042697;28;20036;-77
2022/10/30 03:20:35;;;;;;;15.48;5.90;;;;;;;;;;5045933;28;20112;-77
2022/10/30 03:23:01;;;;;;;14.88;5.10;;;;;;;;;;5052864;28;20102;-77
2022/10/30 03:25:27;;;;;;;22.25;6.07;;;;;;;;;;5040352;28;20029;-77
2022/10/30 03:27:53;;;;;;;17.23;5.18;;;;;;;;;;5035435;28;20198;-77
2022/10/30 03:30:19;;;;;;;17.30;4.78;;;;;;;;;;5044503;28;20048;-77
2022/10/30 03:32:45;;;;;;;17.13;4.80;;;;;;;;;;5032737;28;20030;-77
2022/10/30 03:35:11;;;;;;;11.32;5.22;;;;;;;;;;5048810;28;20036;-77
2022/10/30 03:37:37;;;;;;;20.58;4.80;;;;;;;;;;5052613;28;20029;-77
2022/10/30 03:40:03;;;;;;;15.30;4.72;;;;;;;;;;5045316;28;20087;-77
2022/10/30 03:42:29;;;;;;;13.85;3.95;;;;;;;;;;5045772;28;20108;-77
2022/10/30 03:44:55;;;;;;;16.02;5.18;;;;;;;;;;5036706;28;20120;-77
2022/10/30 03:47:21;;;;;;;20.92;4.93;;;;;;;;;;5047331;28;20376;-77
2022/10/30 03:49:47;;;;;;;20.58;4.95;;;;;;;;;;5052738;28;20091;-77
2022/10/30 03:52:13;;;;;;;13.55;4.07;;;;;;;;;;5052205;28;20033;-77
2022/10/30 03:54:39;;;;;;;14.82;4.50;;;;;;;;;;5035988;28;20140;-77
2022/10/30 03:57:05;;;;;;;17.23;4.78;;;;;;;;;;5046535;28;20027;-77
2022/10/30 03:59:31;;;;;;;25.33;5.22;;;;;;;;;;5033879;28;20033;-77
2022/10/30 04:01:57;;;;;;;19.08;4.30;;;;;;;;;;5032472;28;20040;-77
2022/10/30 04:04:23;;;;;;;13.70;4.43;;;;;;;;;;5047358;28;20113;-77
2022/10/30 04:06:49;;;;;;;16.05;4.63;;;;;;;;;;5046745;28;20419;-77
2022/10/30 04:09:15;;;;;;;18.05;4.65;;;;;;;;;;5052077;28;20021;-77
2022/10/30 04:11:41;;;;;;;19.30;4.05;;;;;;;;;;5052422;28;20442;-77
2022/10/30 04:14:07;;;;;;;15.10;4.40;;;;;;;;;;5048454;28;20033;-77
2022/10/30 04:16:33;;;;;;;11.93;3.58;;;;;;;;;;5052514;28;20037;-77
2022/10/30 04:18:59;;;;;;;14.27;4.20;;;;;;;;;;5051359;28;20017;-77
2022/10/30 04:21:25;;;;;;;12.68;4.28;;;;;;;;;;5052632;28;20021;-77
2022/10/30 04:23:52;;;;;;;15.63;3.78;;;;;;;;;;5051755;28;20024;-77
2022/10/30 04:26:18;;;;;;;14.95;4.78;;;;;;;;;;5052271;28;20040;-77
2022/10/30 04:28:46;;;;;;;18.10;4.20;;;;;;;;;;5051809;28;20021;-77
2022/10/30 04:31:12;;;;;;;13.35;3.85;;;;;;;;;;5043035;28;20436;-77
2022/10/30 04:33:38;;;;;;;17.20;4.43;;;;;;;;;;5036519;28;20029;-77
2022/10/30 04:36:05;;;;;;;10.30;3.80;;;;;;;;;;5057024;28;20045;-77
2022/10/30 04:38:30;;;;;;;10.98;3.78;;;;;;;;;;5056186;28;20448;-77
2022/10/30 04:40:56;;;;;;;16.23;4.82;;;;;;;;;;5056315;28;20051;-77
2022/10/30 04:43:22;;;;;;;15.00;4.13;;;;;;;;;;5055853;28;20064;-77
2022/10/30 04:45:48;;;;;;;13.20;3.90;;;;;;;;;;5055827;28;20111;-77
2022/10/30 04:48:15;;;;;;;12.10;3.83;;;;;;;;;;5055571;28;20379;-77
2022/10/30 04:50:42;;;;;;;18.45;4.82;;;;;;;;;;5045354;28;20041;-77
2022/10/30 04:53:13;;;;;;;12.75;4.00;;;;;;;;;;5048215;28;20492;-77
2022/10/30 04:55:39;;;;;;;23.92;4.68;;;;;;;;;;5048363;28;20058;-77
2022/10/30 04:58:06;;;;;;;15.32;3.83;;;;;;;;;;5055443;28;20040;-77
2022/10/30 05:00:33;;;;;;;14.98;4.38;;;;;;;;;;5055957;28;20033;-77
2022/10/30 05:02:59;;;;;;;13.98;3.75;;;;;;;;;;5045091;28;20071;-77
2022/10/30 05:05:26;;;;;;;18.88;3.97;;;;;;;;;;5055622;28;20423;-77
2022/10/30 05:07:52;;;;;;;10.45;3.75;;;;;;;;;;5055499;28;20051;-77
2022/10/30 05:10:18;;;;;;;9.52;3.30;;;;;;;;;;5055912;28;20468;-77
2022/10/30 05:12:44;;;;;;;9.68;3.35;;;;;;;;;;5055470;28;20099;-77
2022/10/30 05:15:11;;;;;;;15.55;3.88;;;;;;;;;;5044833;28;20526;-77
2022/10/30 05:17:37;;;;;;;13.07;3.83;;;;;;;;;;5055270;28;20067;-77
2022/10/30 05:20:03;;;;;;;13.77;4.25;;;;;;;;;;5049254;28;20030;-78
2022/10/30 05:22:29;;;;;;;15.23;4.20;;;;;;;;;;5053154;28;20075;-77
2022/10/30 05:24:55;;;;;;;16.27;4.28;;;;;;;;;;5054894;28;20056;-77
2022/10/30 05:27:21;;;;;;;15.20;4.30;;;;;;;;;;5025859;28;20026;-77
2022/10/30 05:29:47;;;;;;;12.50;3.83;;;;;;;;;;5023587;28;20045;-77
2022/10/30 05:32:13;;;;;;;15.02;4.50;;;;;;;;;;5018573;28;20029;-77
2022/10/30 05:34:39;;;;;;;10.43;3.72;;;;;;;;;;5023892;28;20061;-77
2022/10/30 05:37:05;;;;;;;15.55;4.82;;;;;;;;;;5034577;28;20029;-77
2022/10/30 05:39:31;;;;;;;15.27;4.97;;;;;;;;;;5034544;28;20075;-77
2022/10/30 05:41:57;;;;;;;19.52;4.55;;;;;;;;;;5032515;28;20024;-77
2022/10/30 05:44:23;;;;;;;23.85;6.55;;;;;;;;;;5021719;28;20099;-77
2022/10/30 05:46:49;;;;;;;10.70;4.70;;;;;;;;;;5034764;28;20025;-77
2022/10/30 05:49:16;;;;;;;17.33;5.50;;;;;;;;;;5033982;28;20469;-77
2022/10/30 05:51:42;;;;;;;12.98;5.25;;;;;;;;;;5034183;28;20025;-77
2022/10/30 05:54:09;;;;;;;15.73;6.22;;;;;;;;;;5033978;28;20037;-77
2022/10/30 05:56:35;;;;;;;18.95;6.13;;;;;;;;;;5013159;28;20383;-77
2022/10/30 05:59:01;;;;;;;12.77;5.15;;;;;;;;;;5028651;28;20026;-77
2022/10/30 06:01:27;;;;;;;19.65;6.47;;;;;;;;;;5032505;28;20017;-77
2022/10/30 06:03:53;;;;;;;16.00;6.90;;;;;;;;;;5025575;28;20169;-77
2022/10/30 06:06:19;;;;;;;13.82;5.63;;;;;;;;;;5027941;28;20472;-77
2022/10/30 06:08:45;;;;;;;15.90;5.75;;;;;;;;;;5023457;28;20037;-77
2022/10/30 06:11:11;;;;;;;16.55;5.85;;;;;;;;;;5034519;28;20033;-77
2022/10/30 06:13:37;;;;;;;12.82;6.00;;;;;;;;;;5014480;28;20038;-77
2022/10/30 06:16:03;;;;;;;12.52;5.60;;;;;;;;;;5027901;28;20034;-77
2022/10/30 06:18:29;;;;;;;16.75;6.38;;;;;;;;;;5030760;28;20088;-77
2022/10/30 06:20:55;;;;;;;22.65;7.63;;;;;;;;;;5027450;28;20026;-77
2022/10/30 06:23:21;;;;;;;14.57;6.20;;;;;;;;;;5030420;28;20029;-77
2022/10/30 06:25:47;;;;;;;14.73;6.20;;;;;;;;;;5023268;28;20044;-77
2022/10/30 06:28:13;;;;;;;19.25;6.38;;;;;;;;;;5029017;28;20030;-77
2022/10/30 06:30:40;;;;;;;19.25;6.53;;;;;;;;;;5022194;28;20026;-77
2022/10/30 06:33:06;;;;;;;15.40;6.88;;;;;;;;;;5033312;28;20033;-77
2022/10/30 06:35:32;;;;;;;19.70;6.68;;;;;;;;;;5030609;28;20392;-77
2022/10/30 06:38:01;;;;;;;16.42;6.43;;;;;;;;;;5026086;28;20032;-77
2022/10/30 06:40:28;;;;;;;15.10;6.47;;;;;;;;;;5033399;28;20025;-77
2022/10/30 06:42:55;;;;;;;14.90;5.63;;;;;;;;;;5033320;28;20361;-76
2022/10/30 06:45:22;;;;;;;20.08;7.15;;;;;;;;;;5031972;28;20044;-76
2022/10/30 06:47:48;;;;;;;16.35;7.07;;;;;;;;;;5029319;28;20155;-77
2022/10/30 06:50:15;;;;;;;15.95;6.90;;;;;;;;;;5032381;28;20038;-76
2022/10/30 06:52:41;;;;;;;19.80;8.15;;;;;;;;;;5020528;28;20036;-76
2022/10/30 06:55:07;;;;;;;21.70;8.20;;;;;;;;;;5022611;28;20049;-76
2022/10/30 06:57:33;;;;;;;16.45;8.55;;;;;;;;;;5031325;28;20683;-76
2022/10/30 06:59:59;;;;;;;20.80;8.35;;;;;;;;;;5018935;28;20519;-76
2022/10/30 07:02:25;;;;;;;20.70;8.77;;;;;;;;;;5018426;28;20034;-76
2022/10/30 07:04:51;;;;;;;22.70;8.32;;;;;;;;;;5014924;28;20037;-76
2022/10/30 07:07:17;;;;;;;14.60;7.65;;;;;;;;;;5018527;28;20033;-76
2022/10/30 07:09:45;;;;;;;17.55;7.45;;;;;;;;;;5026670;28;20079;-76
2022/10/30 07:12:11;;;;;;;15.05;7.93;;;;;;;;;;5027843;28;20209;-75
2022/10/30 07:14:37;;;;;;;21.48;8.73;;;;;;;;;;5022641;28;20021;-76
2022/10/30 07:17:03;;;;;;;18.90;9.10;;;;;;;;;;5029888;28;20032;-76
2022/10/30 07:19:29;;;;;;;35.90;10.75;;;;;;;;;;5024633;28;20056;-76
2022/10/30 07:21:55;;;;;;;26.17;9.48;;;;;;;;;;5025737;28;20021;-76
2022/10/30 07:24:21;;;;;;;26.88;11.15;;;;;;;;;;5029959;28;20076;-77
2022/10/30 07:26:54;;;;;;;26.73;9.55;;;;;;;;;;5092251;27;20398;-75
2022/10/30 07:29:20;;;;;;;29.98;10.63;;;;;;;;;;5086277;28;20470;-76
2022/10/30 07:31:48;;;;;;;22.67;10.50;;;;;;;;;;5071779;28;20072;-75
2022/10/30 07:34:14;;;;;;;22.67;12.10;;;;;;;;;;5085085;28;20135;-76
2022/10/30 07:36:40;;;;;;;34.47;16.15;;;;;;;;;;5069878;28;20423;-74
2022/10/30 07:39:06;;;;;;;44.80;19.23;;;;;;;;;;5072821;28;20033;-75
2022/10/30 07:41:32;;;;;;;38.83;22.48;;;;;;;;;;5086474;28;20055;-75
2022/10/30 07:43:58;;;;;;;37.25;22.88;;;;;;;;;;5074912;28;20103;-75
2022/10/30 07:46:24;;;;;;;36.00;24.73;;;;;;;;;;5088760;28;20468;-76
2022/10/30 07:48:50;;;;;;;37.72;25.08;;;;;;;;;;5085756;28;20798;-75
2022/10/30 07:51:16;;;;;;;46.60;27.33;;;;;;;;;;5097956;28;20107;-75
2022/10/30 07:53:42;;;;;;;38.85;21.35;;;;;;;;;;5077491;28;20028;-75
2022/10/30 07:56:08;;;;;;;23.63;11.23;;;;;;;;;;5072349;28;20492;-75
2022/10/30 07:58:34;;;;;;;26.05;11.00;;;;;;;;;;5070344;28;20029;-75
2022/10/30 08:01:02;;;;;;;23.67;9.73;;;;;;;;;;5077443;28;20081;-75
2022/10/30 08:03:28;;;;;;;22.45;8.40;;;;;;;;;;5076778;28;20082;-76
2022/10/30 08:05:54;;;;;;;23.88;9.65;;;;;;;;;;5073379;28;20055;-75
2022/10/30 08:08:20;;;;;;;23.73;9.23;;;;;;;;;;5075881;28;20683;-75
2022/10/30 08:10:46;;;;;;;18.98;9.90;;;;;;;;;;5084710;28;20039;-76
2022/10/30 08:13:13;;;;;;;25.33;9.80;;;;;;;;;;5074452;28;20024;-75
2022/10/30 08:15:39;;;;;;;20.38;7.78;;;;;;;;;;5083018;28;20031;-76
2022/10/30 08:18:05;;;;;;;26.25;8.55;;;;;;;;;;5073323;28;20079;-75
2022/10/30 08:20:31;;;;;;;21.27;8.23;;;;;;;;;;5073048;28;20056;-75
2022/10/30 08:22:57;;;;;;;19.13;8.27;;;;;;;;;;5070935;28;20029;-75
2022/10/30 08:25:26;;;;;;;15.65;7.97;;;;;;;;;;5073162;28;20131;-75
2022/10/30 08:28:10;;;;;;;22.42;8.93;;;;;;;;;;5087252;28;20374;-75
2022/10/30 08:30:37;;;;;;;17.85;8.35;;;;;;;;;;5078472;28;20060;-76
2022/10/30 08:33:07;;;;;;;19.90;8.20;;;;;;;;;;5087368;28;20025;-76
2022/10/30 08:35:33;;;;;;;17.80;8.65;;;;;;;;;;5071998;28;20090;-76
2022/10/30 08:38:01;;;;;;;22.30;9.20;;;;;;;;;;5072733;28;20033;-76
2022/10/30 08:40:28;;;;;;;24.38;7.53;;;;;;;;;;5065500;28;20035;-76
2022/10/30 08:42:55;;;;;;;16.27;5.85;;;;;;;;;;5064629;28;20033;-76
2022/10/30 08:45:21;;;;;;;15.02;5.47;;;;;;;;;;5066456;28;20037;-76
2022/10/30 08:47:47;;;;;;;17.52;5.22;;;;;;;;;;5063163;28;20040;-75
2022/10/30 08:50:14;;;;;;;18.95;5.03;;;;;;;;;;5075122;28;20035;-76
2022/10/30 08:52:40;;;;;;;19.27;5.72;;;;;;;;;;5073998;28;20020;-76
2022/10/30 08:55:06;;;;;;;16.45;5.95;;;;;;;;;;5064350;28;20035;-76
2022/10/30 08:57:38;;;;;;;22.10;5.10;;;;;;;;;;5063460;28;20039;-76
2022/10/30 09:00:04;;;;;;;;;;;;;;;;;;5067064;28;20111;-75
2022/10/30 09:02:30;;;;;;;17.25;4.53;;;;;;;;;;5072384;28;20038;-75
2022/10/30 09:04:56;;;;;;;20.40;6.68;;;;;;;;;;5069090;28;20386;-75
2022/10/30 09:07:22;;;;;;;17.08;6.55;;;;;;;;;;5070875;28;20021;-75
2022/10/30 09:09:48;;;;;;;20.77;5.45;;;;;;;;;;5061683;28;20037;-75
2022/10/30 09:12:15;;;;;;;23.98;5.53;;;;;;;;;;5068991;28;20048;-76
2022/10/30 09:14:41;;;;;;;16.77;5.07;;;;;;;;;;5074481;28;20074;-76
2022/10/30 09:17:07;;;;;;;18.55;5.50;;;;;;;;;;5074277;28;20631;-76
2022/10/30 09:19:33;;;;;;;16.27;5.05;;;;;;;;;;5061004;28;20059;-77
2022/10/30 09:21:59;;;;;;;13.85;4.35;;;;;;;;;;5067631;28;20032;-76
2022/10/30 09:24:25;;;;;;;14.07;4.05;;;;;;;;;;5073302;28;20017;-76
2022/10/30 09:26:51;;;;;;;17.13;5.03;;;;;;;;;;5026096;28;20041;-76
2022/10/30 09:29:17;;;;;;;13.23;3.95;;;;;;;;;;5036817;28;20497;-76
2022/10/30 09:31:43;;;;;;;10.98;3.50;;;;;;;;;;5038989;28;20037;-76
2022/10/30 09:34:09;;;;;;;12.95;3.72;;;;;;;;;;5032692;28;20025;-76
2022/10/30 09:36:35;;;;;;;11.75;3.85;;;;;;;;;;5020140;28;20048;-76
2022/10/30 09:39:01;;;;;;;18.23;3.50;;;;;;;;;;5025174;28;20072;-76
2022/10/30 09:41:30;;;;;;;14.40;3.30;;;;;;;;;;5025934;28;20034;-76
2022/10/30 09:44:06;;;;;;;14.77;4.25;;;;;;;;;;5023396;28;20519;-76
2022/10/30 09:46:44;;;;;;;14.60;4.47;;;;;;;;;;5018830;28;20037;-76
2022/10/30 09:49:29;;;;;;;14.23;4.90;;;;;;;;;;5028043;28;20108;-76
2022/10/30 09:52:01;;;;;;;21.15;6.00;;;;;;;;;;5036207;28;20029;-76
2022/10/30 09:54:36;;;;;;;13.77;4.85;;;;;;;;;;5031793;28;20065;-76
2022/10/30 09:57:06;;;;;;;14.02;4.63;;;;;;;;;;5032679;28;20029;-77
2022/10/30 09:59:42;;;;;;;14.73;4.38;;;;;;;;;;5027657;28;20640;-77
2022/10/30 10:02:18;;;;;;;18.83;4.10;;;;;;;;;;5034224;28;20091;-76
2022/10/30 10:04:46;;;;;;;12.02;3.83;;;;;;;;;;5033397;28;20080;-77
2022/10/30 10:07:12;;;;;;;12.75;4.03;;;;;;;;;;5025187;28;20341;-77
2022/10/30 10:09:38;;;;;;;15.90;4.10;;;;;;;;;;5029925;28;20021;-77
2022/10/30 10:12:07;;;;;;;13.38;4.18;;;;;;;;;;5022589;28;20066;-77
2022/10/30 10:14:39;;;;;;;15.55;3.97;;;;;;;;;;5042035;28;20071;-77
2022/10/30 10:17:05;;;;;;;;;;;;;;;;;;5025600;28;20033;-76
2022/10/30 10:19:34;;;;;;;17.10;4.28;;;;;;;;;;5034433;28;19908;-77
2022/10/30 10:22:01;;;;;;;15.38;4.15;;;;;;;;;;5028202;28;20125;-77
2022/10/30 10:24:31;;;;;;;12.98;3.97;;;;;;;;;;5029644;28;20033;-77
2022/10/30 10:26:57;;;;;;;15.65;3.40;;;;;;;;;;5060122;28;20033;-77
2022/10/30 10:29:37;;;;;;;15.80;3.40;;;;;;;;;;5065973;28;20036;-77
2022/10/30 10:32:23;;;;;;;12.73;4.82;;;;;;;;;;5059627;28;20039;-77
2022/10/30 10:34:55;;;;;;;13.10;4.35;;;;;;;;;;5035935;28;20044;-77
2022/10/30 10:37:27;;;;;;;15.63;4.05;;;;;;;;;;5058174;28;20025;-77
2022/10/30 10:40:00;;;;;;;16.33;3.72;;;;;;;;;;5060909;28;20029;-77
2022/10/30 10:42:32;;;;;;;24.85;11.48;;;;;;;;;;5060846;28;20108;-78
2022/10/30 10:44:57;;;;;;;;;;;;;;;;;;5052392;28;20064;-78
2022/10/30 10:47:26;;;;;;;15.75;4.50;;;;;;;;;;5068096;28;19991;-77
2022/10/30 10:49:55;;;;;;;17.80;4.47;;;;;;;;;;5066615;28;20028;-77
2022/10/30 10:52:31;;;;;;;18.05;5.38;;;;;;;;;;5080943;28;20681;-78
2022/10/30 10:55:02;;;;;;;19.70;8.05;;;;;;;;;;5052758;28;20568;-78
2022/10/30 10:57:28;;;;;;;16.83;5.40;;;;;;;;;;5060334;28;20736;-78
2022/10/30 10:59:58;;;;;;;15.00;4.60;;;;;;;;;;5072083;28;20143;-78
2022/10/30 11:02:26;;;;;;;13.27;3.22;;;;;;;;;;5064640;28;20055;-77
2022/10/30 11:04:54;;;;;;;20.70;7.05;;;;;;;;;;5071259;28;20032;-77
2022/10/30 11:07:20;;;;;;;23.15;10.27;;;;;;;;;;5060555;28;20029;-77
2022/10/30 11:09:50;;;;;;;17.02;6.22;;;;;;;;;;5057234;28;20039;-76
2022/10/30 11:12:17;;;;;;;13.90;5.05;;;;;;;;;;5063574;28;20100;-76
2022/10/30 11:14:43;;;;;;;14.18;4.32;;;;;;;;;;5065975;28;20653;-76
2022/10/30 11:17:21;;;;;;;19.38;5.05;;;;;;;;;;5068882;28;20025;-76
2022/10/30 11:19:50;;;;;;;18.02;4.43;;;;;;;;;;5065320;28;20028;-77
2022/10/30 11:22:21;;;;;;;11.70;4.82;;;;;;;;;;5073691;28;20025;-78
2022/10/30 11:24:47;;;;;;;15.57;4.25;;;;;;;;;;5052718;28;20064;-77
2022/10/30 11:27:29;;;;;;;15.90;3.70;;;;;;;;;;5064441;28;20734;-77
2022/10/30 11:29:55;;;;;;;;;;;;;;;;;;5061697;28;20061;-77
2022/10/30 11:32:22;;;;;;;17.60;4.40;;;;;;;;;;5064890;28;19955;-78
2022/10/30 11:35:11;;;;;;;12.57;3.78;;;;;;;;;;5064492;28;20036;-77
2022/10/30 11:37:38;;;;;;;14.23;4.25;;;;;;;;;;5053748;28;20029;-78
2022/10/30 11:40:06;;;;;;;12.75;3.40;;;;;;;;;;5061304;28;20032;-78
2022/10/30 11:42:33;;;;;;;12.02;2.85;;;;;;;;;;5056913;28;20029;-78
2022/10/30 11:45:00;;;;;;;10.80;3.25;;;;;;;;;;5057360;28;20045;-78
2022/10/30 11:47:34;;;;;;;12.98;3.05;;;;;;;;;;5054906;28;20104;-78
2022/10/30 11:50:05;;;;;;;21.02;3.65;;;;;;;;;;5060163;28;20041;-78
2022/10/30 11:52:36;;;;;;;12.02;3.00;;;;;;;;;;5061571;28;20032;-78
2022/10/30 11:55:10;;;;;;;11.18;2.78;;;;;;;;;;5064193;28;20412;-78
2022/10/30 11:57:42;;;;;;;14.32;2.63;;;;;;;;;;5064166;28;20024;-78
2022/10/30 12:00:15;;;;;;;9.60;2.58;;;;;;;;;;5057044;28;20036;-78
2022/10/30 12:02:42;;;;;;;9.20;2.53;;;;;;;;;;5062114;28;20029;-78
2022/10/30 12:05:26;;;;;;;14.40;3.17;;;;;;;;;;5058498;28;20059;-78
2022/10/30 12:08:07;;;;;;;16.35;2.55;;;;;;;;;;5061110;28;20056;-78
2022/10/30 12:10:36;;;;;;;8.90;2.58;;;;;;;;;;5058262;28;20037;-78
2022/10/30 12:13:06;;;;;;;9.52;2.50;;;;;;;;;;5062676;28;20124;-78
2022/10/30 12:15:41;;;;;;;14.65;3.08;;;;;;;;;;5056772;28;20044;-79
2022/10/30 12:18:13;;;;;;;11.50;3.20;;;;;;;;;;5063037;28;20111;-78
2022/10/30 12:20:44;;;;;;;11.05;3.28;;;;;;;;;;5065852;28;20045;-78
2022/10/30 12:23:15;;;;;;;12.33;3.33;;;;;;;;;;5063183;28;20116;-78
2022/10/30 12:25:46;;;;;;;7.95;2.65;;;;;;;;;;5062152;28;20302;-78
2022/10/30 12:28:20;;;;;;;12.30;2.50;;;;;;;;;;5068516;28;20834;-78
2022/10/30 12:30:54;;;;;;;16.63;3.40;;;;;;;;;;5071748;28;20727;-78
2022/10/30 12:33:26;;;;;;;14.80;2.38;;;;;;;;;;5061138;28;20051;-78
2022/10/30 12:35:52;;;;;;;;;;;;;;;;;;5067895;28;20041;-78
2022/10/30 12:38:24;;;;;;;13.45;2.33;;;;;;;;;;5069358;28;19977;-78
2022/10/30 12:40:57;;;;;;;11.02;2.83;;;;;;;;;;5078421;28;20041;-78
2022/10/30 12:43:27;;;;;;;12.48;2.40;;;;;;;;;;5063343;28;20374;-78
2022/10/30 12:45:55;;;;;;;12.23;2.70;;;;;;;;;;5060116;28;20072;-78
2022/10/30 12:48:44;;;;;;;12.07;2.47;;;;;;;;;;5059243;28;20493;-78
2022/10/30 12:51:13;;;;;;;9.43;2.40;;;;;;;;;;5042795;28;20044;-78
2022/10/30 12:53:44;;;;;;;12.43;2.78;;;;;;;;;;5064680;28;20056;-78
2022/10/30 12:56:15;;;;;;;10.23;2.60;;;;;;;;;;5069354;28;20488;-78
2022/10/30 12:59:14;;;;;;;13.38;3.17;;;;;;;;;;5058359;28;20036;-78
2022/10/30 13:01:42;;;;;;;13.20;2.35;;;;;;;;;;5032317;28;20048;-78
2022/10/30 13:04:08;;;;;;;14.63;3.00;;;;;;;;;;5058356;28;20029;-78
2022/10/30 13:07:00;;;;;;;10.63;2.17;;;;;;;;;;5068046;28;20039;-78
2022/10/30 13:09:32;;;;;;;11.07;2.50;;;;;;;;;;5027743;28;20033;-78
2022/10/30 13:12:04;;;;;;;10.85;2.58;;;;;;;;;;5061786;28;20024;-78
2022/10/30 13:14:39;;;;;;;10.10;1.90;;;;;;;;;;5056857;28;20033;-79
2022/10/30 13:17:10;;;;;;;13.13;2.10;;;;;;;;;;5066639;28;20025;-78
2022/10/30 13:19:36;;;;;;;9.90;2.08;;;;;;;;;;5057805;28;20033;-78
2022/10/30 13:22:08;;;;;;;9.27;2.10;;;;;;;;;;5064404;28;20584;-78
2022/10/30 13:24:46;;;;;;;9.75;2.13;;;;;;;;;;5073692;28;20851;-78
2022/10/30 13:27:15;;;;;;;9.75;1.88;;;;;;;;;;5085087;28;20032;-78
2022/10/30 13:29:54;;;;;;;14.57;1.83;;;;;;;;;;5083656;28;20549;-78
2022/10/30 13:32:25;;;;;;;12.30;2.40;;;;;;;;;;5080753;28;20039;-78
2022/10/30 13:35:05;;;;;;;10.05;2.25;;;;;;;;;;5084324;28;20031;-78
2022/10/30 13:37:49;;;;;;;8.23;2.00;;;;;;;;;;5082325;28;20028;-78
2022/10/30 13:40:21;;;;;;;8.15;1.95;;;;;;;;;;5081058;28;20024;-77
2022/10/30 13:42:46;;;;;;;;;;;;;;;;;;5088447;28;20036;-78
2022/10/30 13:45:30;;;;;;;12.32;2.40;;;;;;;;;;5079238;28;20396;-78
2022/10/30 13:48:14;;;;;;;10.40;1.88;;;;;;;;;;5081481;28;20100;-78
2022/10/30 13:50:46;;;;;;;14.88;2.30;;;;;;;;;;5077039;28;20048;-78
2022/10/30 13:53:12;;;;;;;;;;;;;;;;;;5083059;28;20460;-78
2022/10/30 13:55:40;;;;;;;11.38;2.38;;;;;;;;;;5083215;28;19916;-78
2022/10/30 13:58:19;;;;;;;11.85;2.15;;;;;;;;;;5084873;28;20035;-78
2022/10/30 14:01:04;;;;;;;8.95;1.33;;;;;;;;;;5079299;28;20033;-78
2022/10/30 14:03:38;;;;;;;10.93;1.52;;;;;;;;;;5064552;28;20036;-78
2022/10/30 14:06:04;;;;;;;13.60;2.10;;;;;;;;;;5079862;28;20552;-78
2022/10/30 14:08:50;;;;;;;9.15;1.70;;;;;;;;;;5082501;28;20063;-78
2022/10/30 14:11:16;;;;;;;9.02;1.98;;;;;;;;;;5079314;28;20725;-78
2022/10/30 14:13:47;;;;;;;9.45;1.90;;;;;;;;;;5080632;28;20043;-78
2022/10/30 14:16:32;;;;;;;9.50;1.42;;;;;;;;;;5074026;28;20115;-78
2022/10/30 14:19:00;;;;;;;12.45;2.08;;;;;;;;;;5087870;28;20032;-78
2022/10/30 14:21:41;;;;;;;9.35;2.20;;;;;;;;;;5077043;28;20110;-78
2022/10/30 14:24:17;;;;;;;8.23;1.87;;;;;;;;;;5092923;28;20032;-78
2022/10/30 14:26:54;;;;;;;8.50;1.52;;;;;;;;;;5077315;28;20051;-78
2022/10/30 14:29:35;;;;;;;9.65;2.03;;;;;;;;;;5073492;28;20056;-78
2022/10/30 14:32:13;;;;;;;8.35;2.15;;;;;;;;;;5084040;28;20040;-78
2022/10/30 14:34:56;;;;;;;11.43;2.67;;;;;;;;;;5092132;28;20019;-78
2022/10/30 14:37:22;;;;;;;11.30;2.88;;;;;;;;;;5071465;28;20036;-78
2022/10/30 14:39:50;;;;;;;15.20;3.35;;;;;;;;;;5075854;28;20043;-78
2022/10/30 14:42:29;;;;;;;10.18;2.90;;;;;;;;;;5078592;28;20024;-78
2022/10/30 14:45:01;;;;;;;17.83;2.00;;;;;;;;;;5085528;28;20044;-78